« Back
NWS Peachtree City, Ga » Text Product » ATL Terminal Aerodrome Forecast


Printer-friendly Version
Current Version              Previous Versions:   1  2  3  4  5  6  7  8  9  

Terminal Aerodrome Forecast

104
FTUS42 KFFC 281947 AAA
TAFATL
TAF AMD
KATL 281947Z 2820/2924 08009KT P6SM FEW050
     FM290300 09005KT P6SM FEW060 SCT250
     FM291500 02005KT P6SM FEW040 SCT120
     FM291800 34007KT P6SM SCT060 BKN120=

USA.gov is the U.S. government's official web portal to all federal, state and local government web resources and services.